Time;durP1;ratioP1;P1;durP2;ratioP2;P2;SDS_P1;SDS_P2;PMS_P1;PMS_P2;Temp;Humidity;BMP_temperature;BMP_pressure;BME280_temperature;BME280_humidity;BME280_pressure;Samples;Min_cycle;Max_cycle;Signal;HPM_P1;HPM_P2
2023/03/12 00:00:20;;;;;;;6.70;2.53;;;;;;;;;;5006902;28;20061;-54
2023/03/12 00:02:45;;;;;;;2.90;1.92;;;;;;;;;;5007225;28;20026;-55
2023/03/12 00:05:10;;;;;;;5.70;1.80;;;;;;;;;;5005137;28;20462;-55
2023/03/12 00:07:36;;;;;;;12.32;2.28;;;;;;;;;;5006653;28;20104;-56
2023/03/12 00:10:05;;;;;;;4.45;2.20;;;;;;;;;;5007029;28;20327;-56
2023/03/12 00:12:31;;;;;;;4.10;2.33;;;;;;;;;;5005053;28;20503;-55
2023/03/12 00:14:56;;;;;;;9.13;4.10;;;;;;;;;;5003907;28;20034;-55
2023/03/12 00:17:22;;;;;;;9.55;2.72;;;;;;;;;;5006696;28;20058;-55
2023/03/12 00:19:51;;;;;;;9.65;3.35;;;;;;;;;;5003817;28;20065;-54
2023/03/12 00:22:17;;;;;;;7.38;2.85;;;;;;;;;;5004325;28;20155;-54
2023/03/12 00:24:42;;;;;;;8.38;2.97;;;;;;;;;;5005015;28;20527;-56
2023/03/12 00:27:07;;;;;;;3.60;1.83;;;;;;;;;;5006267;28;20415;-56
2023/03/12 00:29:32;;;;;;;3.88;2.15;;;;;;;;;;5006201;28;20030;-56
2023/03/12 00:31:58;;;;;;;3.67;1.70;;;;;;;;;;5004164;28;20574;-56
2023/03/12 00:34:23;;;;;;;7.50;2.05;;;;;;;;;;5006555;28;20073;-55
2023/03/12 00:36:48;;;;;;;3.75;1.63;;;;;;;;;;4998600;28;20069;-56
2023/03/12 00:39:14;;;;;;;4.20;0.95;;;;;;;;;;5006040;28;20095;-56
2023/03/12 00:41:39;;;;;;;3.30;1.23;;;;;;;;;;5007091;28;20032;-53
2023/03/12 00:44:05;;;;;;;5.93;1.98;;;;;;;;;;5000551;28;20042;-56
2023/03/12 00:46:30;;;;;;;5.35;2.03;;;;;;;;;;5005298;28;20038;-56
2023/03/12 00:48:56;;;;;;;3.72;1.50;;;;;;;;;;5006247;28;20419;-56
2023/03/12 00:51:21;;;;;;;17.60;2.30;;;;;;;;;;5005948;28;20041;-55
2023/03/12 00:53:47;;;;;;;7.50;2.72;;;;;;;;;;4997663;28;20033;-56
2023/03/12 00:56:12;;;;;;;5.63;2.60;;;;;;;;;;5005488;28;20127;-56
2023/03/12 00:58:38;;;;;;;6.60;1.83;;;;;;;;;;5004781;28;20073;-56
2023/03/12 01:01:04;;;;;;;4.25;1.98;;;;;;;;;;5005418;28;20519;-56
2023/03/12 01:03:29;;;;;;;6.00;1.70;;;;;;;;;;5005657;28;20038;-55
2023/03/12 01:05:55;;;;;;;7.93;2.20;;;;;;;;;;5005682;28;20469;-56
2023/03/12 01:08:21;;;;;;;5.95;1.80;;;;;;;;;;5006237;28;20084;-56
2023/03/12 01:10:47;;;;;;;8.35;1.85;;;;;;;;;;5004600;28;20038;-56
2023/03/12 01:13:12;;;;;;;4.47;2.13;;;;;;;;;;5008292;28;20026;-56
2023/03/12 01:15:37;;;;;;;3.28;1.67;;;;;;;;;;5004704;28;20037;-56
2023/03/12 01:18:03;;;;;;;3.33;1.60;;;;;;;;;;5005230;28;20184;-55
2023/03/12 01:20:28;;;;;;;2.80;1.45;;;;;;;;;;5004056;28;20018;-55
2023/03/12 01:22:53;;;;;;;4.78;2.25;;;;;;;;;;5005617;28;20034;-56
2023/03/12 01:25:19;;;;;;;3.70;1.77;;;;;;;;;;5005592;28;20038;-56
2023/03/12 01:27:44;;;;;;;2.92;1.60;;;;;;;;;;5005375;28;20041;-55
2023/03/12 01:30:10;;;;;;;2.92;1.60;;;;;;;;;;5003610;28;20065;-56
2023/03/12 01:32:36;;;;;;;7.13;2.08;;;;;;;;;;5005989;28;20065;-56
2023/03/12 01:35:01;;;;;;;7.57;2.35;;;;;;;;;;5002363;28;20515;-55
2023/03/12 01:37:27;;;;;;;5.43;1.90;;;;;;;;;;5005537;28;20041;-54
2023/03/12 01:39:53;;;;;;;4.13;1.67;;;;;;;;;;5005781;28;20482;-56
2023/03/12 01:42:18;;;;;;;4.45;2.15;;;;;;;;;;5004746;28;20045;-53
2023/03/12 01:44:56;;;;;;;5.15;2.42;;;;;;;;;;5006030;28;20066;-56
2023/03/12 01:47:22;;;;;;;4.75;2.25;;;;;;;;;;5005408;28;20042;-55
2023/03/12 01:49:49;;;;;;;4.95;2.42;;;;;;;;;;5003180;28;20423;-56
2023/03/12 01:52:23;;;;;;;5.75;2.70;;;;;;;;;;5006750;28;20859;-56
2023/03/12 01:55:01;;;;;;;4.95;2.13;;;;;;;;;;5005503;28;20129;-56
2023/03/12 01:57:34;;;;;;;12.90;3.65;;;;;;;;;;5004250;28;20034;-54
2023/03/12 02:00:06;;;;;;;5.30;2.50;;;;;;;;;;5003274;28;20061;-54
2023/03/12 02:02:33;;;;;;;11.00;3.60;;;;;;;;;;5004731;28;20029;-54
2023/03/12 02:05:15;;;;;;;6.40;1.70;;;;;;;;;;5005519;28;20583;-55
2023/03/12 02:07:40;;;;;;;3.63;1.67;;;;;;;;;;5004795;28;20489;-55
2023/03/12 02:10:06;;;;;;;4.43;2.05;;;;;;;;;;5004704;28;20053;-56
2023/03/12 02:12:31;;;;;;;3.63;2.03;;;;;;;;;;5005235;28;20038;-56
2023/03/12 02:14:57;;;;;;;4.35;1.55;;;;;;;;;;5000809;28;20828;-56
2023/03/12 02:17:22;;;;;;;4.78;1.77;;;;;;;;;;4997806;28;20067;-56
2023/03/12 02:20:00;;;;;;;3.63;2.17;;;;;;;;;;5004751;28;20495;-54
2023/03/12 02:22:26;;;;;;;5.47;1.80;;;;;;;;;;5001652;28;20049;-54
2023/03/12 02:25:26;;;;;;;3.15;1.75;;;;;;;;;;5003215;28;20059;-55
2023/03/12 02:27:51;;;;;;;4.25;2.30;;;;;;;;;;4993798;28;20053;-56
2023/03/12 02:30:17;;;;;;;5.80;2.20;;;;;;;;;;5003950;28;20083;-56
2023/03/12 02:32:45;;;;;;;7.40;1.98;;;;;;;;;;5005515;28;20025;-54
2023/03/12 02:35:13;;;;;;;6.80;2.50;;;;;;;;;;5004062;28;20503;-56
2023/03/12 02:37:53;;;;;;;4.15;2.25;;;;;;;;;;5001317;28;20038;-55
2023/03/12 02:40:26;;;;;;;6.47;2.35;;;;;;;;;;4998553;28;20584;-56
2023/03/12 02:42:53;;;;;;;6.47;2.38;;;;;;;;;;5004860;28;20750;-55
2023/03/12 02:45:18;;;;;;;5.45;2.47;;;;;;;;;;5008437;28;20034;-56
2023/03/12 02:47:44;;;;;;;3.97;2.25;;;;;;;;;;5008585;28;20032;-56
2023/03/12 02:50:10;;;;;;;5.13;2.63;;;;;;;;;;5007952;28;20038;-55
2023/03/12 02:52:36;;;;;;;6.00;3.03;;;;;;;;;;5008433;28;20046;-56
2023/03/12 02:55:02;;;;;;;4.05;2.38;;;;;;;;;;5007670;28;20038;-55
2023/03/12 02:57:27;;;;;;;7.65;2.30;;;;;;;;;;5008375;28;20040;-56
2023/03/12 02:59:53;;;;;;;4.50;2.30;;;;;;;;;;5008435;28;20036;-55
2023/03/12 03:02:18;;;;;;;5.60;2.53;;;;;;;;;;5005242;28;20401;-56
2023/03/12 03:04:43;;;;;;;8.98;3.35;;;;;;;;;;5004808;28;20779;-55
2023/03/12 03:07:09;;;;;;;8.75;3.10;;;;;;;;;;5007465;28;20121;-56
2023/03/12 03:09:34;;;;;;;6.30;2.75;;;;;;;;;;5008282;28;20032;-54
2023/03/12 03:11:59;;;;;;;4.43;2.38;;;;;;;;;;5007437;28;20033;-54
2023/03/12 03:14:25;;;;;;;4.22;2.38;;;;;;;;;;5008476;28;20014;-55
2023/03/12 03:16:50;;;;;;;6.10;2.72;;;;;;;;;;5007484;28;20033;-55
2023/03/12 03:19:15;;;;;;;8.20;2.55;;;;;;;;;;5002964;28;20355;-55
2023/03/12 03:21:42;;;;;;;4.95;2.42;;;;;;;;;;5003458;28;20527;-55
2023/03/12 03:24:08;;;;;;;5.03;2.88;;;;;;;;;;5007375;28;20065;-55
2023/03/12 03:26:33;;;;;;;5.50;2.55;;;;;;;;;;5008171;28;20088;-55
2023/03/12 03:28:58;;;;;;;6.93;2.70;;;;;;;;;;5005623;28;20462;-56
2023/03/12 03:31:24;;;;;;;6.72;3.60;;;;;;;;;;5004887;28;20124;-55
2023/03/12 03:33:49;;;;;;;4.90;2.80;;;;;;;;;;5001141;28;20446;-56
2023/03/12 03:36:15;;;;;;;11.05;3.88;;;;;;;;;;5007422;28;20034;-56
2023/03/12 03:38:41;;;;;;;7.03;3.08;;;;;;;;;;5008529;28;20030;-56
2023/03/12 03:41:06;;;;;;;4.80;2.50;;;;;;;;;;5004894;28;20038;-56
2023/03/12 03:43:32;;;;;;;8.52;3.30;;;;;;;;;;5004965;28;20030;-55
2023/03/12 03:45:59;;;;;;;12.65;3.40;;;;;;;;;;5007096;28;20056;-56
2023/03/12 03:48:25;;;;;;;5.10;2.95;;;;;;;;;;5006023;28;20050;-56
2023/03/12 03:50:50;;;;;;;4.78;2.70;;;;;;;;;;5005276;28;20026;-56
2023/03/12 03:53:18;;;;;;;5.60;2.88;;;;;;;;;;5008178;28;20546;-55
2023/03/12 03:55:43;;;;;;;4.32;2.67;;;;;;;;;;5005858;28;20041;-56
2023/03/12 03:58:09;;;;;;;6.05;3.05;;;;;;;;;;5006801;28;20533;-56
2023/03/12 04:00:34;;;;;;;4.32;2.60;;;;;;;;;;5005818;28;20030;-56
2023/03/12 04:02:59;;;;;;;7.68;2.88;;;;;;;;;;5007063;28;20018;-56
2023/03/12 04:05:25;;;;;;;6.38;3.08;;;;;;;;;;5007659;28;20342;-56
2023/03/12 04:07:53;;;;;;;6.97;3.22;;;;;;;;;;5005861;28;20118;-56
2023/03/12 04:10:20;;;;;;;8.40;2.53;;;;;;;;;;5006421;28;20042;-53
2023/03/12 04:12:45;;;;;;;5.22;2.95;;;;;;;;;;4993650;28;20531;-56
2023/03/12 04:15:10;;;;;;;11.13;3.70;;;;;;;;;;5006687;28;20038;-56
2023/03/12 04:17:36;;;;;;;8.90;3.42;;;;;;;;;;5003453;28;20046;-56
2023/03/12 04:20:01;;;;;;;7.65;3.70;;;;;;;;;;5006287;28;20123;-56
2023/03/12 04:22:26;;;;;;;5.88;3.30;;;;;;;;;;5000063;28;20046;-56
2023/03/12 04:24:52;;;;;;;7.03;3.30;;;;;;;;;;5000048;28;20065;-56
2023/03/12 04:27:17;;;;;;;5.13;2.83;;;;;;;;;;5018164;28;20521;-56
2023/03/12 04:29:44;;;;;;;11.15;3.33;;;;;;;;;;5007009;28;20698;-55
2023/03/12 04:32:09;;;;;;;7.47;3.60;;;;;;;;;;5006232;28;20030;-56
2023/03/12 04:34:34;;;;;;;9.75;4.00;;;;;;;;;;5004712;28;20069;-56
2023/03/12 04:37:02;;;;;;;7.93;3.80;;;;;;;;;;5006267;28;20033;-56
2023/03/12 04:39:27;;;;;;;9.88;3.33;;;;;;;;;;5005265;28;20061;-56
2023/03/12 04:41:52;;;;;;;7.47;3.67;;;;;;;;;;5006490;28;20112;-56
2023/03/12 04:44:17;;;;;;;9.02;4.13;;;;;;;;;;5005489;28;20026;-56
2023/03/12 04:46:43;;;;;;;12.40;4.13;;;;;;;;;;5005640;28;20983;-56
2023/03/12 04:49:08;;;;;;;8.43;4.35;;;;;;;;;;5005657;28;20118;-57
2023/03/12 04:51:34;;;;;;;9.15;4.35;;;;;;;;;;5006146;28;20515;-56
2023/03/12 04:53:59;;;;;;;8.90;4.63;;;;;;;;;;5004812;28;20026;-56
2023/03/12 04:56:24;;;;;;;11.95;4.55;;;;;;;;;;5003731;28;20013;-56
2023/03/12 04:58:51;;;;;;;9.20;4.65;;;;;;;;;;5003623;28;20541;-55
2023/03/12 05:01:26;;;;;;;10.48;4.40;;;;;;;;;;5005010;28;20812;-56
2023/03/12 05:03:53;;;;;;;10.00;4.78;;;;;;;;;;5005343;28;20463;-56
2023/03/12 05:06:18;;;;;;;9.50;4.82;;;;;;;;;;5005250;28;20034;-56
2023/03/12 05:08:44;;;;;;;11.52;4.57;;;;;;;;;;5005034;28;20133;-56
2023/03/12 05:11:09;;;;;;;8.50;4.97;;;;;;;;;;5005098;28;20033;-56
2023/03/12 05:13:35;;;;;;;12.13;4.82;;;;;;;;;;5004451;28;20030;-56
2023/03/12 05:16:00;;;;;;;9.40;4.85;;;;;;;;;;5005005;28;20314;-56
2023/03/12 05:18:25;;;;;;;9.20;4.90;;;;;;;;;;5005644;28;20034;-56
2023/03/12 05:21:05;;;;;;;10.85;4.55;;;;;;;;;;4992996;28;20034;-56
2023/03/12 05:23:31;;;;;;;9.80;4.50;;;;;;;;;;5000668;28;20738;-54
2023/03/12 05:25:56;;;;;;;10.18;5.28;;;;;;;;;;5006155;28;20038;-56
2023/03/12 05:28:26;;;;;;;11.10;4.85;;;;;;;;;;5005600;28;20629;-56
2023/03/12 05:30:53;;;;;;;11.75;5.55;;;;;;;;;;4997181;28;20910;-55
2023/03/12 05:33:19;;;;;;;12.65;5.15;;;;;;;;;;5004380;28;20144;-56
2023/03/12 05:35:44;;;;;;;9.55;4.93;;;;;;;;;;5005767;28;20100;-56
2023/03/12 05:38:09;;;;;;;13.23;5.07;;;;;;;;;;5004579;28;20030;-56
2023/03/12 05:40:35;;;;;;;13.13;5.45;;;;;;;;;;5005390;28;20033;-56
2023/03/12 05:43:00;;;;;;;10.40;4.63;;;;;;;;;;5003778;28;20187;-56
2023/03/12 05:45:25;;;;;;;16.27;5.05;;;;;;;;;;5004000;28;20033;-56
2023/03/12 05:47:51;;;;;;;11.98;5.60;;;;;;;;;;5005446;28;20021;-56
2023/03/12 05:50:16;;;;;;;16.05;6.47;;;;;;;;;;5004525;28;20032;-57
2023/03/12 05:52:41;;;;;;;17.33;6.65;;;;;;;;;;5003885;28;20069;-56
2023/03/12 05:55:07;;;;;;;17.15;6.78;;;;;;;;;;5005433;28;20423;-56
2023/03/12 05:57:33;;;;;;;14.43;6.22;;;;;;;;;;5005461;28;20033;-56
2023/03/12 05:59:58;;;;;;;13.80;6.10;;;;;;;;;;5000861;28;20030;-56
2023/03/12 06:02:23;;;;;;;17.88;7.55;;;;;;;;;;5002536;28;20491;-56
2023/03/12 06:04:49;;;;;;;14.13;6.22;;;;;;;;;;5001489;28;20046;-54
2023/03/12 06:07:14;;;;;;;15.25;6.40;;;;;;;;;;5002150;28;20117;-56
2023/03/12 06:09:40;;;;;;;21.00;6.40;;;;;;;;;;5004965;28;20626;-56
2023/03/12 06:12:06;;;;;;;18.75;8.02;;;;;;;;;;5003580;28;20026;-56
2023/03/12 06:14:31;;;;;;;18.85;6.32;;;;;;;;;;5001554;28;20513;-56
2023/03/12 06:16:56;;;;;;;12.55;6.70;;;;;;;;;;5003994;28;20076;-56
2023/03/12 06:19:22;;;;;;;15.65;6.40;;;;;;;;;;5004319;28;20038;-56
2023/03/12 06:21:47;;;;;;;19.95;7.97;;;;;;;;;;5001356;28;20061;-56
2023/03/12 06:24:12;;;;;;;19.75;8.02;;;;;;;;;;5001450;28;20498;-56
2023/03/12 06:26:39;;;;;;;18.40;8.02;;;;;;;;;;5003912;28;20029;-56
2023/03/12 06:29:04;;;;;;;24.20;8.18;;;;;;;;;;5005049;28;20026;-56
2023/03/12 06:31:29;;;;;;;23.60;9.18;;;;;;;;;;5004152;28;20482;-56
2023/03/12 06:33:55;;;;;;;24.40;8.13;;;;;;;;;;5004712;28;20768;-55
2023/03/12 06:36:22;;;;;;;37.25;11.43;;;;;;;;;;5002274;28;20116;-57
2023/03/12 06:38:47;;;;;;;25.75;9.10;;;;;;;;;;5004866;28;20026;-56
2023/03/12 06:41:15;;;;;;;26.48;9.32;;;;;;;;;;5004271;28;20462;-56
2023/03/12 06:43:41;;;;;;;30.38;9.30;;;;;;;;;;5004743;28;20129;-56
2023/03/12 06:46:11;;;;;;;27.48;10.23;;;;;;;;;;5003880;28;20038;-56
2023/03/12 06:48:39;;;;;;;28.02;9.45;;;;;;;;;;5004417;28;20026;-56
2023/03/12 06:51:08;;;;;;;32.63;10.93;;;;;;;;;;5004185;28;20534;-56
2023/03/12 06:53:34;;;;;;;33.58;8.57;;;;;;;;;;5005010;28;20050;-56
2023/03/12 06:56:00;;;;;;;28.77;11.40;;;;;;;;;;5004263;28;20604;-56
2023/03/12 06:58:25;;;;;;;35.10;9.50;;;;;;;;;;5004553;28;20034;-56
2023/03/12 07:00:52;;;;;;;28.17;9.52;;;;;;;;;;5001540;28;20061;-55
2023/03/12 07:03:17;;;;;;;35.22;9.13;;;;;;;;;;4999630;28;20918;-56
2023/03/12 07:05:44;;;;;;;45.15;10.50;;;;;;;;;;4998961;28;20033;-56
2023/03/12 07:08:10;;;;;;;41.50;9.90;;;;;;;;;;4997360;28;20038;-56
2023/03/12 07:10:35;;;;;;;35.97;9.50;;;;;;;;;;5003596;28;20034;-56
2023/03/12 07:13:01;;;;;;;41.78;10.50;;;;;;;;;;5004484;28;20034;-56
2023/03/12 07:15:26;;;;;;;32.97;9.85;;;;;;;;;;5000133;28;20026;-55
2023/03/12 07:17:51;;;;;;;39.35;11.07;;;;;;;;;;4995244;28;20053;-57
2023/03/12 07:20:17;;;;;;;41.72;10.18;;;;;;;;;;5001631;28;20080;-56
2023/03/12 07:22:42;;;;;;;35.25;10.13;;;;;;;;;;4998809;28;20537;-56
2023/03/12 07:25:08;;;;;;;48.97;10.18;;;;;;;;;;5000932;28;20136;-56
2023/03/12 07:27:34;;;;;;;34.67;9.30;;;;;;;;;;5001439;28;20060;-56
2023/03/12 07:29:59;;;;;;;38.88;8.48;;;;;;;;;;4999997;28;20491;-56
2023/03/12 07:32:25;;;;;;;30.98;9.40;;;;;;;;;;5007644;28;20038;-56
2023/03/12 07:34:50;;;;;;;34.28;8.23;;;;;;;;;;5005260;28;20033;-56
2023/03/12 07:37:15;;;;;;;32.72;8.88;;;;;;;;;;5002504;28;20045;-56
2023/03/12 07:39:41;;;;;;;33.25;7.93;;;;;;;;;;5006775;28;20185;-56
2023/03/12 07:42:06;;;;;;;36.63;7.97;;;;;;;;;;5006983;28;20687;-56
2023/03/12 07:44:32;;;;;;;45.55;8.52;;;;;;;;;;5002462;28;20030;-57
2023/03/12 07:46:57;;;;;;;40.55;7.40;;;;;;;;;;5007106;28;20042;-57
2023/03/12 07:49:23;;;;;;;39.45;7.60;;;;;;;;;;5006927;28;20044;-56
2023/03/12 07:51:48;;;;;;;33.70;6.55;;;;;;;;;;5000618;28;20044;-56
2023/03/12 07:54:13;;;;;;;39.42;9.45;;;;;;;;;;5009409;28;20157;-56
2023/03/12 07:56:39;;;;;;;37.65;8.23;;;;;;;;;;5005839;28;20022;-57
2023/03/12 07:59:04;;;;;;;44.70;7.82;;;;;;;;;;4991330;28;20101;-56
2023/03/12 08:01:31;;;;;;;31.73;7.80;;;;;;;;;;4998331;28;20072;-56
2023/03/12 08:03:59;;;;;;;43.20;7.95;;;;;;;;;;4999692;28;20072;-57
2023/03/12 08:06:25;;;;;;;30.25;8.10;;;;;;;;;;4999619;28;20073;-56
2023/03/12 08:08:51;;;;;;;26.52;6.05;;;;;;;;;;5005655;28;20116;-56
2023/03/12 08:11:16;;;;;;;27.15;7.47;;;;;;;;;;4998317;28;20112;-56
2023/03/12 08:13:42;;;;;;;50.40;10.45;;;;;;;;;;5002244;28;20038;-56
2023/03/12 08:16:07;;;;;;;40.50;10.38;;;;;;;;;;5006385;28;20086;-56
2023/03/12 08:18:32;;;;;;;52.85;9.60;;;;;;;;;;5006014;28;20049;-56
2023/03/12 08:20:57;;;;;;;34.03;6.70;;;;;;;;;;5004859;28;20061;-56
2023/03/12 08:23:25;;;;;;;37.38;7.47;;;;;;;;;;5006376;28;20570;-56
2023/03/12 08:25:51;;;;;;;41.28;7.28;;;;;;;;;;5005765;28;20096;-54
2023/03/12 08:28:17;;;;;;;51.08;8.68;;;;;;;;;;5004827;28;20053;-56
2023/03/12 08:30:50;;;;;;;39.40;6.47;;;;;;;;;;5005566;28;20040;-57
2023/03/12 08:33:16;;;;;;;;;;;;;;;;;;5006246;28;20038;-57
2023/03/12 08:35:41;;;;;;;45.33;7.20;;;;;;;;;;5006117;28;19909;-56
2023/03/12 08:38:07;;;;;;;45.25;7.25;;;;;;;;;;4999732;28;20372;-54
2023/03/12 08:40:32;;;;;;;42.97;7.80;;;;;;;;;;4996059;28;20034;-56
2023/03/12 08:42:58;;;;;;;27.92;6.20;;;;;;;;;;4998138;28;20050;-56
2023/03/12 08:45:23;;;;;;;25.35;5.88;;;;;;;;;;4995912;28;20070;-57
2023/03/12 08:47:49;;;;;;;33.47;6.60;;;;;;;;;;5000624;28;20025;-56
2023/03/12 08:50:15;;;;;;;36.53;5.72;;;;;;;;;;5003554;28;20046;-56
2023/03/12 08:52:42;;;;;;;24.10;5.65;;;;;;;;;;5004216;28;20057;-55
2023/03/12 08:55:08;;;;;;;33.28;7.35;;;;;;;;;;5000019;28;20125;-56
2023/03/12 08:57:34;;;;;;;29.40;5.63;;;;;;;;;;5003594;28;20125;-56
2023/03/12 08:59:59;;;;;;;24.98;6.25;;;;;;;;;;5003369;28;20177;-56
2023/03/12 09:02:24;;;;;;;27.10;5.45;;;;;;;;;;4992003;28;20033;-56
2023/03/12 09:04:49;;;;;;;32.65;6.32;;;;;;;;;;5002920;28;20581;-56
2023/03/12 09:07:17;;;;;;;18.73;4.40;;;;;;;;;;5003449;28;20096;-55
2023/03/12 09:09:43;;;;;;;33.63;5.63;;;;;;;;;;5003861;28;20061;-56
2023/03/12 09:12:08;;;;;;;25.48;5.57;;;;;;;;;;5003260;28;20121;-56
2023/03/12 09:14:34;;;;;;;21.80;4.78;;;;;;;;;;4992597;28;20530;-56
2023/03/12 09:17:00;;;;;;;35.05;5.22;;;;;;;;;;4992476;28;20069;-56
2023/03/12 09:19:26;;;;;;;21.08;4.75;;;;;;;;;;4994935;28;20046;-56
2023/03/12 09:21:51;;;;;;;26.92;4.00;;;;;;;;;;4996045;28;20049;-56
2023/03/12 09:24:16;;;;;;;27.08;4.90;;;;;;;;;;4999136;28;20176;-56
2023/03/12 09:26:42;;;;;;;24.98;4.53;;;;;;;;;;4994016;28;20021;-56
2023/03/12 09:29:07;;;;;;;23.08;4.93;;;;;;;;;;4997257;28;20411;-56
2023/03/12 09:31:33;;;;;;;25.85;4.55;;;;;;;;;;4990358;28;20030;-56
2023/03/12 09:33:58;;;;;;;19.48;4.63;;;;;;;;;;4996963;28;20046;-56
2023/03/12 09:36:24;;;;;;;26.52;5.72;;;;;;;;;;4999361;28;20049;-56
2023/03/12 09:38:49;;;;;;;22.33;4.30;;;;;;;;;;4991360;28;20507;-55
2023/03/12 09:41:22;;;;;;;14.88;3.60;;;;;;;;;;4997524;28;20017;-56
2023/03/12 09:44:00;;;;;;;20.13;3.90;;;;;;;;;;4992646;28;20038;-56
2023/03/12 09:46:32;;;;;;;23.88;4.25;;;;;;;;;;4993142;28;20038;-56
2023/03/12 09:49:02;;;;;;;25.42;4.43;;;;;;;;;;5009362;28;20727;-56
2023/03/12 09:51:35;;;;;;;30.58;4.82;;;;;;;;;;4995668;28;20042;-55
2023/03/12 09:54:05;;;;;;;28.73;5.20;;;;;;;;;;4990024;28;20160;-55
2023/03/12 09:56:32;;;;;;;21.08;4.57;;;;;;;;;;4997812;28;20057;-55
2023/03/12 09:58:57;;;;;;;26.83;4.25;;;;;;;;;;4996706;28;20037;-55
2023/03/12 10:01:48;;;;;;;16.95;4.28;;;;;;;;;;4996009;28;20051;-56
2023/03/12 10:04:39;;;;;;;29.60;4.53;;;;;;;;;;4992061;28;20521;-56
2023/03/12 10:07:12;;;;;;;26.45;4.75;;;;;;;;;;4995524;28;20700;-56
2023/03/12 10:09:46;;;;;;;25.00;5.57;;;;;;;;;;4994964;28;20147;-56
2023/03/12 10:12:30;;;;;;;24.33;5.28;;;;;;;;;;4993330;28;21350;-53
2023/03/12 10:15:14;;;;;;;25.85;4.68;;;;;;;;;;4993953;28;20033;-56
2023/03/12 10:17:49;;;;;;;31.33;4.25;;;;;;;;;;5003604;28;20054;-56
2023/03/12 10:20:26;;;;;;;26.50;4.75;;;;;;;;;;5003079;28;20041;-56
2023/03/12 10:23:29;;;;;;;27.17;4.82;;;;;;;;;;5000133;28;20049;-57
2023/03/12 10:26:06;;;;;;;29.15;5.20;;;;;;;;;;4993006;28;20033;-56
2023/03/12 10:28:35;;;;;;;31.45;4.35;;;;;;;;;;5003146;28;20140;-56
2023/03/12 10:31:04;;;;;;;37.10;5.43;;;;;;;;;;5003833;28;20499;-56
2023/03/12 10:33:41;;;;;;;33.33;4.88;;;;;;;;;;5003975;28;20038;-56
2023/03/12 10:36:35;;;;;;;42.55;5.68;;;;;;;;;;5000876;28;21425;-56
2023/03/12 10:39:01;;;;;;;23.73;3.83;;;;;;;;;;4995810;28;20050;-56
2023/03/12 10:41:31;;;;;;;40.78;4.05;;;;;;;;;;5001980;28;20030;-56
2023/03/12 10:44:02;;;;;;;32.38;4.82;;;;;;;;;;5000204;28;20778;-55
2023/03/12 10:46:33;;;;;;;31.08;4.88;;;;;;;;;;5001793;28;20046;-56
2023/03/12 10:49:22;;;;;;;31.63;4.95;;;;;;;;;;4992822;28;20494;-57
2023/03/12 10:51:59;;;;;;;27.52;5.57;;;;;;;;;;4999502;28;20093;-56
2023/03/12 10:54:32;;;;;;;31.80;6.03;;;;;;;;;;5004287;28;20053;-56
2023/03/12 10:56:58;;;;;;;22.70;4.25;;;;;;;;;;5002986;28;20029;-56
2023/03/12 10:59:30;;;;;;;23.00;4.25;;;;;;;;;;5003845;28;20053;-56
2023/03/12 11:01:56;;;;;;;30.65;4.78;;;;;;;;;;5002064;28;20038;-57
2023/03/12 11:04:28;;;;;;;36.70;4.07;;;;;;;;;;5003563;28;20068;-55
2023/03/12 11:07:11;;;;;;;28.13;4.43;;;;;;;;;;4992610;28;20069;-56
2023/03/12 11:09:37;;;;;;;29.52;4.32;;;;;;;;;;4998761;28;20041;-56
2023/03/12 11:12:23;;;;;;;34.35;5.25;;;;;;;;;;4993594;28;20052;-56
2023/03/12 11:14:48;;;;;;;32.20;4.50;;;;;;;;;;5006141;28;20298;-56
2023/03/12 11:17:23;;;;;;;37.78;5.93;;;;;;;;;;5006612;28;20136;-56
2023/03/12 11:19:49;;;;;;;25.02;4.35;;;;;;;;;;5006297;28;20041;-56
2023/03/12 11:22:30;;;;;;;26.85;4.30;;;;;;;;;;5006972;28;20570;-56
2023/03/12 11:25:06;;;;;;;24.63;3.97;;;;;;;;;;5005929;28;20038;-56
2023/03/12 11:27:44;;;;;;;19.55;3.60;;;;;;;;;;5006695;28;20030;-57
2023/03/12 11:30:16;;;;;;;24.30;3.92;;;;;;;;;;5000683;28;20104;-56
2023/03/12 11:32:45;;;;;;;30.23;4.30;;;;;;;;;;4996755;28;20025;-56
2023/03/12 11:35:18;;;;;;;29.42;4.60;;;;;;;;;;5005161;28;20423;-56
2023/03/12 11:38:04;;;;;;;22.05;3.33;;;;;;;;;;5005812;28;20037;-57
2023/03/12 11:40:46;;;;;;;17.90;3.72;;;;;;;;;;5005398;28;20041;-56
2023/03/12 11:43:43;;;;;;;22.45;3.78;;;;;;;;;;5006393;28;20073;-56
2023/03/12 11:46:14;;;;;;;20.60;3.60;;;;;;;;;;5001088;28;20537;-56
2023/03/12 11:48:49;;;;;;;28.13;3.90;;;;;;;;;;4995650;28;20691;-57
2023/03/12 11:51:23;;;;;;;18.52;3.83;;;;;;;;;;4996766;28;20576;-56
2023/03/12 11:54:02;;;;;;;14.25;3.40;;;;;;;;;;5003579;28;20655;-56
2023/03/12 11:56:45;;;;;;;19.23;3.22;;;;;;;;;;5005265;28;20046;-56
2023/03/12 11:59:36;;;;;;;19.48;3.47;;;;;;;;;;5006193;28;20144;-56
2023/03/12 12:02:13;;;;;;;16.98;3.20;;;;;;;;;;5004886;28;20080;-56
2023/03/12 12:04:51;;;;;;;18.67;3.28;;;;;;;;;;5003625;28;20498;-56
2023/03/12 12:07:33;;;;;;;21.55;3.03;;;;;;;;;;5005303;28;20128;-56
2023/03/12 12:10:46;;;;;;;19.67;3.72;;;;;;;;;;5005832;28;20070;-56
2023/03/12 12:13:17;;;;;;;15.90;3.28;;;;;;;;;;4972898;28;20682;-56
2023/03/12 12:15:53;;;;;;;18.95;3.00;;;;;;;;;;4998548;28;20041;-57
2023/03/12 12:18:48;;;;;;;16.38;2.83;;;;;;;;;;5004584;28;20069;-56
2023/03/12 12:21:51;;;;;;;17.20;3.53;;;;;;;;;;4996424;28;20526;-57
2023/03/12 12:24:37;;;;;;;14.27;2.85;;;;;;;;;;4994332;28;20050;-56
2023/03/12 12:27:26;;;;;;;14.07;2.88;;;;;;;;;;4996450;28;20123;-56
2023/03/12 12:30:15;;;;;;;18.67;2.58;;;;;;;;;;4993252;28;20080;-56
2023/03/12 12:32:49;;;;;;;25.17;3.75;;;;;;;;;;5004350;28;20087;-56
2023/03/12 12:35:36;;;;;;;21.55;3.83;;;;;;;;;;5004944;28;20045;-56
2023/03/12 12:38:06;;;;;;;22.95;3.42;;;;;;;;;;5002907;28;20133;-56
2023/03/12 12:40:46;;;;;;;19.48;3.20;;;;;;;;;;5000615;28;20051;-56
2023/03/12 12:43:36;;;;;;;22.45;3.83;;;;;;;;;;5005170;28;20041;-56
2023/03/12 12:46:11;;;;;;;19.67;3.28;;;;;;;;;;5005051;28;20042;-56
2023/03/12 12:48:43;;;;;;;15.50;2.90;;;;;;;;;;5002135;28;20034;-56
2023/03/12 12:51:10;;;;;;;19.75;3.25;;;;;;;;;;5005425;28;20026;-56
2023/03/12 12:53:42;;;;;;;18.63;2.83;;;;;;;;;;5005283;28;20105;-57
2023/03/12 12:56:14;;;;;;;27.40;3.47;;;;;;;;;;5004629;28;20052;-57
2023/03/12 12:58:52;;;;;;;12.55;3.08;;;;;;;;;;5004886;28;20042;-56
2023/03/12 13:01:19;;;;;;;19.40;3.35;;;;;;;;;;5004655;28;20546;-57
2023/03/12 13:03:45;;;;;;;18.65;3.83;;;;;;;;;;5002305;28;20462;-55
2023/03/12 13:06:11;;;;;;;20.52;3.08;;;;;;;;;;5004333;28;20066;-56
2023/03/12 13:08:39;;;;;;;22.30;3.00;;;;;;;;;;5005019;28;20483;-56
2023/03/12 13:11:13;;;;;;;13.55;2.65;;;;;;;;;;5003403;28;20041;-56
2023/03/12 13:13:42;;;;;;;18.58;2.80;;;;;;;;;;5002524;28;20732;-57
2023/03/12 13:16:32;;;;;;;19.08;3.42;;;;;;;;;;5004229;28;20107;-56
2023/03/12 13:18:59;;;;;;;19.98;3.22;;;;;;;;;;5004606;28;20570;-56
2023/03/12 13:21:34;;;;;;;14.80;2.83;;;;;;;;;;5004611;28;20064;-56
2023/03/12 13:24:21;;;;;;;20.63;3.22;;;;;;;;;;5004455;28;20132;-56
2023/03/12 13:27:02;;;;;;;15.65;3.03;;;;;;;;;;5003799;28;20025;-57
2023/03/12 13:29:27;;;;;;;18.65;2.30;;;;;;;;;;4998214;28;20037;-56
2023/03/12 13:31:53;;;;;;;18.77;3.47;;;;;;;;;;5004047;28;20045;-56
2023/03/12 13:34:18;;;;;;;15.73;3.05;;;;;;;;;;5001114;28;20034;-56
2023/03/12 13:36:45;;;;;;;17.70;2.97;;;;;;;;;;4997381;28;20049;-56
2023/03/12 13:39:30;;;;;;;16.45;3.60;;;;;;;;;;5003383;28;20120;-56
2023/03/12 13:41:57;;;;;;;14.68;2.58;;;;;;;;;;5004463;28;20495;-56
2023/03/12 13:44:25;;;;;;;13.63;2.38;;;;;;;;;;5004581;28;20033;-56
2023/03/12 13:47:03;;;;;;;19.33;3.38;;;;;;;;;;5002181;28;20073;-55
2023/03/12 13:49:51;;;;;;;19.48;2.65;;;;;;;;;;5001681;28;20041;-55
2023/03/12 13:52:23;;;;;;;17.15;2.75;;;;;;;;;;4984107;28;20038;-56
2023/03/12 13:55:14;;;;;;;19.73;3.10;;;;;;;;;;4999795;28;20124;-56
2023/03/12 13:57:43;;;;;;;15.55;2.90;;;;;;;;;;4997566;28;20422;-56
2023/03/12 14:00:23;;;;;;;12.25;2.25;;;;;;;;;;4983901;28;20034;-56
2023/03/12 14:02:56;;;;;;;11.05;2.13;;;;;;;;;;4986789;28;20037;-55
2023/03/12 14:05:21;;;;;;;16.45;3.13;;;;;;;;;;4968359;28;20132;-55
2023/03/12 14:08:20;;;;;;;18.83;3.30;;;;;;;;;;4992209;28;20515;-56
2023/03/12 14:10:54;;;;;;;12.00;2.42;;;;;;;;;;5001957;28;20083;-56
2023/03/12 14:13:19;;;;;;;15.73;2.65;;;;;;;;;;4992530;28;20442;-57
2023/03/12 14:15:58;;;;;;;20.20;2.55;;;;;;;;;;5002339;28;20045;-56
2023/03/12 14:18:26;;;;;;;15.02;2.95;;;;;;;;;;5002329;28;20050;-56
2023/03/12 14:20:58;;;;;;;14.93;2.85;;;;;;;;;;4991458;28;20025;-56
2023/03/12 14:23:37;;;;;;;18.38;2.78;;;;;;;;;;5001285;28;20149;-57
2023/03/12 14:26:05;;;;;;;11.23;2.47;;;;;;;;;;5001073;28;20164;-56
2023/03/12 14:28:36;;;;;;;19.73;3.30;;;;;;;;;;4999400;28;20057;-57
2023/03/12 14:31:06;;;;;;;19.23;3.25;;;;;;;;;;5001935;28;20132;-57
2023/03/12 14:33:39;;;;;;;13.90;2.50;;;;;;;;;;4997764;28;20033;-54
2023/03/12 14:36:10;;;;;;;13.95;2.70;;;;;;;;;;4992248;28;20831;-56
2023/03/12 14:38:40;;;;;;;13.52;2.63;;;;;;;;;;5003008;28;20101;-55
2023/03/12 14:41:13;;;;;;;16.42;3.08;;;;;;;;;;5006245;28;20045;-56
2023/03/12 14:43:40;;;;;;;18.23;2.45;;;;;;;;;;5006742;28;20632;-56
2023/03/12 14:46:16;;;;;;;12.30;2.10;;;;;;;;;;5007297;28;20048;-56